sensor_id;sensor_type;location;lat;lon;timestamp;P1;durP1;ratioP1;P2;durP2;ratioP2
69910;SDS011;63555;49.920;17.868;2023-01-19T00:00:57;44.07;;;15.43;;
69910;SDS011;63555;49.920;17.868;2023-01-19T00:05:57;42.20;;;14.37;;
69910;SDS011;63555;49.920;17.868;2023-01-19T00:10:57;39.30;;;13.67;;
69910;SDS011;63555;49.920;17.868;2023-01-19T00:15:58;40.80;;;14.97;;
69910;SDS011;63555;49.920;17.868;2023-01-19T00:20:58;40.67;;;14.87;;
69910;SDS011;63555;49.920;17.868;2023-01-19T00:25:58;38.37;;;14.53;;
69910;SDS011;63555;49.920;17.868;2023-01-19T00:30:59;43.67;;;14.80;;
69910;SDS011;63555;49.920;17.868;2023-01-19T00:35:59;49.60;;;15.57;;
69910;SDS011;63555;49.920;17.868;2023-01-19T00:41:00;39.60;;;14.30;;
69910;SDS011;63555;49.920;17.868;2023-01-19T00:46:00;41.50;;;14.40;;
69910;SDS011;63555;49.920;17.868;2023-01-19T00:51:00;33.13;;;13.23;;
69910;SDS011;63555;49.920;17.868;2023-01-19T00:56:01;32.83;;;11.97;;
69910;SDS011;63555;49.920;17.868;2023-01-19T01:01:01;39.03;;;13.67;;
69910;SDS011;63555;49.920;17.868;2023-01-19T01:06:03;36.80;;;13.80;;
69910;SDS011;63555;49.920;17.868;2023-01-19T01:11:07;34.38;;;12.80;;
69910;SDS011;63555;49.920;17.868;2023-01-19T01:16:07;34.37;;;13.13;;
69910;SDS011;63555;49.920;17.868;2023-01-19T01:21:08;44.60;;;13.07;;
69910;SDS011;63555;49.920;17.868;2023-01-19T01:26:11;35.80;;;11.82;;
69910;SDS011;63555;49.920;17.868;2023-01-19T01:31:12;34.10;;;12.53;;
69910;SDS011;63555;49.920;17.868;2023-01-19T01:36:12;32.87;;;12.67;;
69910;SDS011;63555;49.920;17.868;2023-01-19T01:41:13;37.00;;;11.93;;
69910;SDS011;63555;49.920;17.868;2023-01-19T01:46:14;33.17;;;12.88;;
69910;SDS011;63555;49.920;17.868;2023-01-19T01:51:27;35.97;;;13.10;;
69910;SDS011;63555;49.920;17.868;2023-01-19T01:56:35;31.67;;;12.52;;
69910;SDS011;63555;49.920;17.868;2023-01-19T02:01:38;27.43;;;11.80;;
69910;SDS011;63555;49.920;17.868;2023-01-19T02:06:57;28.23;;;11.18;;
69910;SDS011;63555;49.920;17.868;2023-01-19T02:12:16;26.88;;;11.43;;
69910;SDS011;63555;49.920;17.868;2023-01-19T02:17:35;34.97;;;12.45;;
69910;SDS011;63555;49.920;17.868;2023-01-19T02:22:38;33.97;;;13.00;;
69910;SDS011;63555;49.920;17.868;2023-01-19T02:27:44;34.03;;;12.15;;
69910;SDS011;63555;49.920;17.868;2023-01-19T02:32:45;33.63;;;11.97;;
69910;SDS011;63555;49.920;17.868;2023-01-19T02:37:45;31.27;;;12.73;;
69910;SDS011;63555;49.920;17.868;2023-01-19T02:42:50;36.90;;;13.63;;
69910;SDS011;63555;49.920;17.868;2023-01-19T02:47:55;34.45;;;12.07;;
69910;SDS011;63555;49.920;17.868;2023-01-19T02:52:57;36.77;;;13.60;;
69910;SDS011;63555;49.920;17.868;2023-01-19T02:58:19;31.45;;;12.35;;
69910;SDS011;63555;49.920;17.868;2023-01-19T03:03:24;31.20;;;12.23;;
69910;SDS011;63555;49.920;17.868;2023-01-19T03:08:34;31.80;;;12.15;;
69910;SDS011;63555;49.920;17.868;2023-01-19T03:14:02;31.33;;;11.43;;
69910;SDS011;63555;49.920;17.868;2023-01-19T03:19:13;35.43;;;11.00;;
69910;SDS011;63555;49.920;17.868;2023-01-19T03:24:18;39.70;;;12.20;;
69910;SDS011;63555;49.920;17.868;2023-01-19T03:29:21;38.63;;;12.20;;
69910;SDS011;63555;49.920;17.868;2023-01-19T03:34:27;32.25;;;11.68;;
69910;SDS011;63555;49.920;17.868;2023-01-19T03:39:28;33.97;;;12.23;;
69910;SDS011;63555;49.920;17.868;2023-01-19T03:44:29;34.27;;;11.33;;
69910;SDS011;63555;49.920;17.868;2023-01-19T03:49:33;38.03;;;12.40;;
69910;SDS011;63555;49.920;17.868;2023-01-19T03:54:35;34.30;;;11.68;;
69910;SDS011;63555;49.920;17.868;2023-01-19T03:59:35;30.57;;;11.63;;
69910;SDS011;63555;49.920;17.868;2023-01-19T04:04:36;37.07;;;12.33;;
69910;SDS011;63555;49.920;17.868;2023-01-19T04:09:36;30.47;;;11.27;;
69910;SDS011;63555;49.920;17.868;2023-01-19T04:14:36;39.93;;;13.37;;
69910;SDS011;63555;49.920;17.868;2023-01-19T04:19:37;31.97;;;12.37;;
69910;SDS011;63555;49.920;17.868;2023-01-19T04:24:37;36.83;;;11.60;;
69910;SDS011;63555;49.920;17.868;2023-01-19T04:29:37;34.93;;;11.53;;
69910;SDS011;63555;49.920;17.868;2023-01-19T04:34:38;28.63;;;11.37;;
69910;SDS011;63555;49.920;17.868;2023-01-19T04:39:38;34.20;;;11.57;;
69910;SDS011;63555;49.920;17.868;2023-01-19T04:44:38;32.17;;;12.03;;
69910;SDS011;63555;49.920;17.868;2023-01-19T04:49:39;29.87;;;10.57;;
69910;SDS011;63555;49.920;17.868;2023-01-19T04:54:39;39.33;;;13.13;;
69910;SDS011;63555;49.920;17.868;2023-01-19T04:59:40;32.17;;;13.43;;
69910;SDS011;63555;49.920;17.868;2023-01-19T05:04:40;36.20;;;13.53;;
69910;SDS011;63555;49.920;17.868;2023-01-19T05:09:41;36.33;;;13.40;;
69910;SDS011;63555;49.920;17.868;2023-01-19T05:14:41;45.07;;;16.03;;
69910;SDS011;63555;49.920;17.868;2023-01-19T05:19:42;33.10;;;13.33;;
69910;SDS011;63555;49.920;17.868;2023-01-19T05:24:42;36.57;;;13.80;;
69910;SDS011;63555;49.920;17.868;2023-01-19T05:29:44;41.10;;;13.53;;
69910;SDS011;63555;49.920;17.868;2023-01-19T05:34:44;40.40;;;16.10;;
69910;SDS011;63555;49.920;17.868;2023-01-19T05:39:45;45.70;;;18.30;;
69910;SDS011;63555;49.920;17.868;2023-01-19T05:44:45;31.47;;;12.13;;
69910;SDS011;63555;49.920;17.868;2023-01-19T05:49:46;31.17;;;13.43;;
69910;SDS011;63555;49.920;17.868;2023-01-19T05:54:46;33.93;;;12.77;;
69910;SDS011;63555;49.920;17.868;2023-01-19T05:59:47;36.93;;;14.70;;
69910;SDS011;63555;49.920;17.868;2023-01-19T06:04:47;45.63;;;16.83;;
69910;SDS011;63555;49.920;17.868;2023-01-19T06:09:47;52.07;;;19.63;;
69910;SDS011;63555;49.920;17.868;2023-01-19T06:14:48;66.33;;;20.87;;
69910;SDS011;63555;49.920;17.868;2023-01-19T06:19:48;65.73;;;21.60;;
69910;SDS011;63555;49.920;17.868;2023-01-19T06:24:48;76.27;;;22.93;;
69910;SDS011;63555;49.920;17.868;2023-01-19T06:29:49;74.33;;;22.03;;
69910;SDS011;63555;49.920;17.868;2023-01-19T06:34:50;64.13;;;20.60;;
69910;SDS011;63555;49.920;17.868;2023-01-19T06:39:50;61.30;;;18.97;;
69910;SDS011;63555;49.920;17.868;2023-01-19T06:44:50;43.73;;;15.07;;
69910;SDS011;63555;49.920;17.868;2023-01-19T06:49:51;46.43;;;15.60;;
69910;SDS011;63555;49.920;17.868;2023-01-19T06:54:51;48.73;;;16.27;;
69910;SDS011;63555;49.920;17.868;2023-01-19T06:59:51;55.27;;;17.90;;
69910;SDS011;63555;49.920;17.868;2023-01-19T07:04:52;41.33;;;14.97;;
69910;SDS011;63555;49.920;17.868;2023-01-19T07:09:52;48.23;;;15.87;;
69910;SDS011;63555;49.920;17.868;2023-01-19T07:14:52;44.87;;;18.30;;
69910;SDS011;63555;49.920;17.868;2023-01-19T07:19:53;31.00;;;10.57;;
69910;SDS011;63555;49.920;17.868;2023-01-19T07:24:53;43.87;;;16.07;;
69910;SDS011;63555;49.920;17.868;2023-01-19T07:29:53;44.30;;;15.13;;
69910;SDS011;63555;49.920;17.868;2023-01-19T07:34:54;35.97;;;13.37;;
69910;SDS011;63555;49.920;17.868;2023-01-19T07:39:54;55.60;;;16.17;;
69910;SDS011;63555;49.920;17.868;2023-01-19T07:44:54;52.87;;;15.93;;
69910;SDS011;63555;49.920;17.868;2023-01-19T07:49:55;49.50;;;17.97;;
69910;SDS011;63555;49.920;17.868;2023-01-19T07:54:55;45.47;;;17.23;;
69910;SDS011;63555;49.920;17.868;2023-01-19T07:59:57;32.37;;;11.03;;
69910;SDS011;63555;49.920;17.868;2023-01-19T08:04:57;33.90;;;12.30;;
69910;SDS011;63555;49.920;17.868;2023-01-19T08:09:57;34.00;;;12.63;;
69910;SDS011;63555;49.920;17.868;2023-01-19T08:14:58;31.37;;;11.63;;
69910;SDS011;63555;49.920;17.868;2023-01-19T08:19:58;29.90;;;11.37;;
69910;SDS011;63555;49.920;17.868;2023-01-19T08:24:58;33.93;;;11.00;;
69910;SDS011;63555;49.920;17.868;2023-01-19T08:29:59;14.00;;;6.07;;
69910;SDS011;63555;49.920;17.868;2023-01-19T08:34:59;30.40;;;12.17;;
69910;SDS011;63555;49.920;17.868;2023-01-19T08:40:00;26.00;;;10.50;;
69910;SDS011;63555;49.920;17.868;2023-01-19T08:45:01;26.00;;;10.03;;
69910;SDS011;63555;49.920;17.868;2023-01-19T08:50:02;21.33;;;8.50;;
69910;SDS011;63555;49.920;17.868;2023-01-19T08:55:02;22.80;;;9.80;;
69910;SDS011;63555;49.920;17.868;2023-01-19T09:00:03;27.40;;;8.88;;
69910;SDS011;63555;49.920;17.868;2023-01-19T09:05:06;20.70;;;7.77;;
69910;SDS011;63555;49.920;17.868;2023-01-19T09:10:07;19.75;;;8.85;;
69910;SDS011;63555;49.920;17.868;2023-01-19T09:15:09;18.10;;;8.00;;
69910;SDS011;63555;49.920;17.868;2023-01-19T09:20:11;12.45;;;6.80;;
69910;SDS011;63555;49.920;17.868;2023-01-19T09:25:12;12.17;;;5.93;;
69910;SDS011;63555;49.920;17.868;2023-01-19T09:30:13;13.73;;;6.60;;
69910;SDS011;63555;49.920;17.868;2023-01-19T09:35:13;14.97;;;6.43;;
69910;SDS011;63555;49.920;17.868;2023-01-19T09:40:14;12.77;;;6.30;;
69910;SDS011;63555;49.920;17.868;2023-01-19T09:45:28;16.30;;;7.55;;
69910;SDS011;63555;49.920;17.868;2023-01-19T09:50:35;15.05;;;6.80;;
69910;SDS011;63555;49.920;17.868;2023-01-19T09:55:39;12.40;;;7.00;;
69910;SDS011;63555;49.920;17.868;2023-01-19T10:00:42;12.90;;;6.07;;
69910;SDS011;63555;49.920;17.868;2023-01-19T10:05:51;13.67;;;5.87;;
69910;SDS011;63555;49.920;17.868;2023-01-19T10:10:57;15.35;;;6.60;;
69910;SDS011;63555;49.920;17.868;2023-01-19T10:21:25;18.60;;;8.13;;
69910;SDS011;63555;49.920;17.868;2023-01-19T10:32:31;18.10;;;7.63;;
69910;SDS011;63555;49.920;17.868;2023-01-19T10:37:37;12.35;;;5.60;;
69910;SDS011;63555;49.920;17.868;2023-01-19T10:42:40;13.40;;;5.70;;
69910;SDS011;63555;49.920;17.868;2023-01-19T10:47:41;17.77;;;7.40;;
69910;SDS011;63555;49.920;17.868;2023-01-19T10:52:44;14.10;;;5.60;;
69910;SDS011;63555;49.920;17.868;2023-01-19T10:57:50;12.88;;;6.05;;
69910;SDS011;63555;49.920;17.868;2023-01-19T11:02:52;17.42;;;6.80;;
69910;SDS011;63555;49.920;17.868;2023-01-19T11:07:52;16.90;;;7.47;;
69910;SDS011;63555;49.920;17.868;2023-01-19T11:17:56;14.53;;;6.43;;
69910;SDS011;63555;49.920;17.868;2023-01-19T11:28:04;15.43;;;7.47;;
69910;SDS011;63555;49.920;17.868;2023-01-19T11:33:04;15.70;;;6.93;;
69910;SDS011;63555;49.920;17.868;2023-01-19T11:43:14;17.90;;;6.78;;
69910;SDS011;63555;49.920;17.868;2023-01-19T11:48:17;13.73;;;5.47;;
69910;SDS011;63555;49.920;17.868;2023-01-19T11:53:24;12.93;;;4.87;;
69910;SDS011;63555;49.920;17.868;2023-01-19T11:58:30;12.18;;;5.05;;
69910;SDS011;63555;49.920;17.868;2023-01-19T12:03:36;12.13;;;4.47;;
69910;SDS011;63555;49.920;17.868;2023-01-19T12:08:42;10.50;;;4.35;;
69910;SDS011;63555;49.920;17.868;2023-01-19T12:13:46;8.27;;;3.72;;
69910;SDS011;63555;49.920;17.868;2023-01-19T12:29:16;7.00;;;3.00;;
69910;SDS011;63555;49.920;17.868;2023-01-19T12:39:26;9.40;;;3.85;;
69910;SDS011;63555;49.920;17.868;2023-01-19T12:44:26;8.10;;;3.50;;
69910;SDS011;63555;49.920;17.868;2023-01-19T12:49:31;8.40;;;3.43;;
69910;SDS011;63555;49.920;17.868;2023-01-19T12:54:39;8.57;;;4.55;;
69910;SDS011;63555;49.920;17.868;2023-01-19T12:59:42;12.23;;;6.90;;
69910;SDS011;63555;49.920;17.868;2023-01-19T13:15:43;12.82;;;5.53;;
69910;SDS011;63555;49.920;17.868;2023-01-19T13:20:55;12.50;;;5.67;;
69910;SDS011;63555;49.920;17.868;2023-01-19T13:26:00;10.50;;;5.28;;
69910;SDS011;63555;49.920;17.868;2023-01-19T13:31:02;9.30;;;4.47;;
69910;SDS011;63555;49.920;17.868;2023-01-19T13:36:04;10.33;;;4.93;;
69910;SDS011;63555;49.920;17.868;2023-01-19T13:41:19;11.27;;;5.20;;
69910;SDS011;63555;49.920;17.868;2023-01-19T13:46:24;12.18;;;5.15;;
69910;SDS011;63555;49.920;17.868;2023-01-19T13:51:26;12.48;;;6.05;;
69910;SDS011;63555;49.920;17.868;2023-01-19T13:56:27;12.63;;;5.97;;
69910;SDS011;63555;49.920;17.868;2023-01-19T14:01:28;14.90;;;5.72;;
69910;SDS011;63555;49.920;17.868;2023-01-19T14:06:31;12.47;;;5.90;;
69910;SDS011;63555;49.920;17.868;2023-01-19T14:11:34;13.32;;;5.57;;
69910;SDS011;63555;49.920;17.868;2023-01-19T14:16:35;10.97;;;4.13;;
69910;SDS011;63555;49.920;17.868;2023-01-19T14:21:37;13.93;;;5.07;;
69910;SDS011;63555;49.920;17.868;2023-01-19T14:26:48;16.17;;;5.30;;
69910;SDS011;63555;49.920;17.868;2023-01-19T14:37:00;12.90;;;4.70;;
69910;SDS011;63555;49.920;17.868;2023-01-19T14:42:03;16.00;;;5.03;;
69910;SDS011;63555;49.920;17.868;2023-01-19T14:47:06;12.17;;;5.57;;
69910;SDS011;63555;49.920;17.868;2023-01-19T14:52:27;13.23;;;5.03;;
69910;SDS011;63555;49.920;17.868;2023-01-19T14:57:35;15.73;;;5.50;;
69910;SDS011;63555;49.920;17.868;2023-01-19T15:02:36;11.90;;;4.83;;
69910;SDS011;63555;49.920;17.868;2023-01-19T15:07:36;10.60;;;4.50;;
69910;SDS011;63555;49.920;17.868;2023-01-19T15:12:39;11.77;;;4.60;;
69910;SDS011;63555;49.920;17.868;2023-01-19T15:17:41;16.40;;;5.70;;
69910;SDS011;63555;49.920;17.868;2023-01-19T15:22:42;15.37;;;6.83;;
69910;SDS011;63555;49.920;17.868;2023-01-19T15:27:43;28.88;;;8.60;;
69910;SDS011;63555;49.920;17.868;2023-01-19T15:32:45;22.02;;;8.70;;
69910;SDS011;63555;49.920;17.868;2023-01-19T15:37:46;24.03;;;8.93;;
69910;SDS011;63555;49.920;17.868;2023-01-19T15:42:48;18.33;;;7.95;;
69910;SDS011;63555;49.920;17.868;2023-01-19T15:47:48;20.57;;;8.67;;
69910;SDS011;63555;49.920;17.868;2023-01-19T16:04:42;14.73;;;5.13;;
69910;SDS011;63555;49.920;17.868;2023-01-19T16:09:47;16.33;;;5.57;;
69910;SDS011;63555;49.920;17.868;2023-01-19T16:14:49;11.98;;;5.38;;
69910;SDS011;63555;49.920;17.868;2023-01-19T16:19:49;16.23;;;6.00;;
69910;SDS011;63555;49.920;17.868;2023-01-19T16:24:49;14.60;;;5.47;;
69910;SDS011;63555;49.920;17.868;2023-01-19T16:29:51;13.73;;;5.20;;
69910;SDS011;63555;49.920;17.868;2023-01-19T16:34:52;18.73;;;6.30;;
69910;SDS011;63555;49.920;17.868;2023-01-19T16:39:52;17.73;;;7.70;;
69910;SDS011;63555;49.920;17.868;2023-01-19T16:44:53;33.10;;;10.17;;
69910;SDS011;63555;49.920;17.868;2023-01-19T16:49:53;37.77;;;12.27;;
69910;SDS011;63555;49.920;17.868;2023-01-19T16:54:53;38.07;;;12.03;;
69910;SDS011;63555;49.920;17.868;2023-01-19T16:59:54;41.40;;;14.50;;
69910;SDS011;63555;49.920;17.868;2023-01-19T17:04:54;38.03;;;14.30;;
69910;SDS011;63555;49.920;17.868;2023-01-19T17:09:55;41.13;;;14.73;;
69910;SDS011;63555;49.920;17.868;2023-01-19T17:14:55;38.37;;;13.10;;
69910;SDS011;63555;49.920;17.868;2023-01-19T17:19:55;39.63;;;16.70;;
69910;SDS011;63555;49.920;17.868;2023-01-19T17:24:56;45.55;;;18.75;;
69910;SDS011;63555;49.920;17.868;2023-01-19T17:29:56;46.63;;;18.43;;
69910;SDS011;63555;49.920;17.868;2023-01-19T17:34:57;42.27;;;15.53;;
69910;SDS011;63555;49.920;17.868;2023-01-19T17:39:57;33.53;;;12.67;;
69910;SDS011;63555;49.920;17.868;2023-01-19T17:44:59;35.10;;;10.60;;
69910;SDS011;63555;49.920;17.868;2023-01-19T17:49:59;23.10;;;10.25;;
69910;SDS011;63555;49.920;17.868;2023-01-19T17:54:59;32.50;;;11.27;;
69910;SDS011;63555;49.920;17.868;2023-01-19T18:00:00;27.53;;;9.90;;
69910;SDS011;63555;49.920;17.868;2023-01-19T18:05:01;30.33;;;11.93;;
69910;SDS011;63555;49.920;17.868;2023-01-19T18:10:03;29.40;;;11.38;;
69910;SDS011;63555;49.920;17.868;2023-01-19T18:15:08;24.15;;;10.32;;
69910;SDS011;63555;49.920;17.868;2023-01-19T18:20:09;22.77;;;10.07;;
69910;SDS011;63555;49.920;17.868;2023-01-19T18:25:10;31.38;;;10.88;;
69910;SDS011;63555;49.920;17.868;2023-01-19T18:30:11;22.97;;;10.53;;
69910;SDS011;63555;49.920;17.868;2023-01-19T18:35:12;25.43;;;10.20;;
69910;SDS011;63555;49.920;17.868;2023-01-19T18:40:12;28.03;;;9.83;;
69910;SDS011;63555;49.920;17.868;2023-01-19T18:45:16;23.10;;;10.20;;
69910;SDS011;63555;49.920;17.868;2023-01-19T18:50:17;26.10;;;11.23;;
69910;SDS011;63555;49.920;17.868;2023-01-19T18:55:17;22.90;;;8.73;;
69910;SDS011;63555;49.920;17.868;2023-01-19T19:00:19;21.20;;;9.00;;
69910;SDS011;63555;49.920;17.868;2023-01-19T19:05:20;25.57;;;10.70;;
69910;SDS011;63555;49.920;17.868;2023-01-19T19:10:20;25.70;;;8.77;;
69910;SDS011;63555;49.920;17.868;2023-01-19T19:15:20;20.47;;;8.30;;
69910;SDS011;63555;49.920;17.868;2023-01-19T19:20:21;23.65;;;9.10;;
69910;SDS011;63555;49.920;17.868;2023-01-19T19:25:22;29.60;;;11.70;;
69910;SDS011;63555;49.920;17.868;2023-01-19T19:30:22;26.77;;;10.97;;
69910;SDS011;63555;49.920;17.868;2023-01-19T19:35:23;22.80;;;9.27;;
69910;SDS011;63555;49.920;17.868;2023-01-19T19:40:24;28.20;;;10.03;;
69910;SDS011;63555;49.920;17.868;2023-01-19T19:45:26;21.33;;;9.25;;
69910;SDS011;63555;49.920;17.868;2023-01-19T19:50:30;24.43;;;10.07;;
69910;SDS011;63555;49.920;17.868;2023-01-19T19:55:30;24.73;;;9.23;;
69910;SDS011;63555;49.920;17.868;2023-01-19T20:00:30;24.97;;;9.67;;
69910;SDS011;63555;49.920;17.868;2023-01-19T20:05:34;23.70;;;9.80;;
69910;SDS011;63555;49.920;17.868;2023-01-19T20:10:35;27.07;;;9.67;;
69910;SDS011;63555;49.920;17.868;2023-01-19T20:15:37;44.58;;;17.77;;
69910;SDS011;63555;49.920;17.868;2023-01-19T20:20:38;45.90;;;14.67;;
69910;SDS011;63555;49.920;17.868;2023-01-19T20:25:38;33.53;;;14.70;;
69910;SDS011;63555;49.920;17.868;2023-01-19T20:42:36;28.85;;;11.68;;
69910;SDS011;63555;49.920;17.868;2023-01-19T20:47:40;30.10;;;11.52;;
69910;SDS011;63555;49.920;17.868;2023-01-19T20:52:40;29.47;;;11.20;;
69910;SDS011;63555;49.920;17.868;2023-01-19T20:57:41;29.07;;;11.47;;
69910;SDS011;63555;49.920;17.868;2023-01-19T21:02:42;22.97;;;8.43;;
69910;SDS011;63555;49.920;17.868;2023-01-19T21:07:42;20.77;;;8.13;;
